Mesa, Arizona
Current Conditions -  °F | °C
As of 5:47 AM on Friday 19 Dec 2014 (Local Time) from KCHD Reporting Station
Clear Clear  
Wind Chill:   Ceiling: Unl
Heat Index:   Visibility: 15mi
Dew Point:   Wind: 0mph
Humidity: 100%   Direction: NA
Pressure: 30.2"   Gusts: NA
Location:  33.42°N, 111.83°W
Report Text: KCHD 191247Z 00000KT 15SM SKC 05/05 A3020
Loading
Personal Weather Stations






























Interactive Weather Map New forecast layout! Learn more

10-Day Weather Forecast

Advertisements
Track Severe Weather on mobile